Aeroporto :
LOGIN :

Iscrizione | Disclaimer

   EN    FR    IT 

 










Sommario :    VFR   VFR Marginale   IFR   IFR Intensivo   IFR Molto Intensivo
Visibilità : 
Base nubi : 
>= 8 km
>= 3000ft
5 / 8 km
1000 / 3000 ft
1500m / 5 km
500 / 1000 ft
800 / 1500m
200 / 500 ft
< 800m
< 200 ft
Simboli :   Temporali  Nebbia  Neve Forte  Precipitazioni Forti  Vento > 20 kt
SIGMETs :   Varie  Temporali  Ghiacco  Turbolenza  Onda orograficha  Ceneri Vulcaniche






- Altitudine del aeroporto : 52 ft
- Codice IATA : IOM


EGNS - Isle of Man

ULTIMO METAR :
  • 060950Z 25016KT 220V280 9999 FEW018 SCT040 11/08 Q0997 NOSIG

METARs OBSOLETI :
  • 060920Z 26015KT 230V300 9999 FEW018 SCT040 11/07 Q0997 NOSIG
  • 060850Z 25017KT 220V280 9999 FEW015 SCT045 11/07 Q0997 NOSIG
  • 060820Z 26016KT 220V290 9999 FEW015 11/08 Q0997 NOSIG
  • 060750Z 25017KT 9999 FEW015 11/09 Q0997 RERA NOSIG
  • 060720Z 25018KT 210V270 9999 -RA FEW006 OVC010 11/11 Q0997 NOSIG

TAF TAF EGNS
Valido dal 06 a 09 ore il 06 a 18 ore UTC


060800Z 0609/0618 25020G30KT 9999 FEW018 SCT025
TEMPO 0609/0613 6000 SHRA
BECMG 0610/0613 27018KT



MetMap, La meteo Aeronautica in un colpo d'occhio ! - Copyright ORBIFLY Dicembre 2007 - Disclaimer

ORBIFLY MET'MAP TEAM :

Programmazione e sviluppo : Alexandra Zaïnal
Concezione : Baudouin d'Aumeries
Aiuto per la programmazione : Marc-Olivier Méhu
Supporto tecnico e logistico : Manuel Goepfert
Aiuto per la traduzione : Arnaldo La Scala

Contatto : metmap@orbifly.com




FONTI E CREDITI :

   NOAA